Time;durP1;ratioP1;P1;durP2;ratioP2;P2;SDS_P1;SDS_P2;PMS_P1;PMS_P2;Temp;Humidity;BMP_temperature;BMP_pressure;BME280_temperature;BME280_humidity;BME280_pressure;Samples;Min_cycle;Max_cycle;Signal;HPM_P1;HPM_P2
2023/10/10 00:00:28;;;;;;;22.00;20.60;;;;;;;;;;4999588;28;20073;-67
2023/10/10 00:02:56;;;;;;;21.80;20.50;;;;;;;;;;5002060;28;20040;-68
2023/10/10 00:05:33;;;;;;;21.77;20.38;;;;;;;;;;4988138;28;20264;-67
2023/10/10 00:08:00;;;;;;;20.73;19.63;;;;;;;;;;5004200;28;20491;-67
2023/10/10 00:10:27;;;;;;;21.35;20.15;;;;;;;;;;5003441;28;20040;-65
2023/10/10 00:12:53;;;;;;;20.38;19.17;;;;;;;;;;5003917;28;20554;-67
2023/10/10 00:15:28;;;;;;;21.77;20.48;;;;;;;;;;5003601;28;20108;-65
2023/10/10 00:18:02;;;;;;;22.42;20.80;;;;;;;;;;4986511;28;20111;-64
2023/10/10 00:20:35;;;;;;;22.33;21.02;;;;;;;;;;5005785;28;20329;-66
2023/10/10 00:23:04;;;;;;;21.42;20.02;;;;;;;;;;5001359;28;20042;-68
2023/10/10 00:25:32;;;;;;;22.20;20.90;;;;;;;;;;5004104;28;20034;-65
2023/10/10 00:28:06;;;;;;;21.70;20.40;;;;;;;;;;5000579;28;20094;-65
2023/10/10 00:30:42;;;;;;;21.98;20.80;;;;;;;;;;5005017;28;20759;-65
2023/10/10 00:33:16;;;;;;;20.30;19.20;;;;;;;;;;5000599;28;20455;-68
2023/10/10 00:35:44;;;;;;;21.63;20.33;;;;;;;;;;5003359;28;20407;-68
2023/10/10 00:38:19;;;;;;;21.77;20.50;;;;;;;;;;4998260;28;20155;-65
2023/10/10 00:40:47;;;;;;;20.42;19.23;;;;;;;;;;5002396;28;20034;-67
2023/10/10 00:43:16;;;;;;;19.83;18.73;;;;;;;;;;5000867;28;20068;-68
2023/10/10 00:45:44;;;;;;;20.25;19.05;;;;;;;;;;5002853;28;20046;-68
2023/10/10 00:48:09;;;;;;;21.85;20.65;;;;;;;;;;4986847;28;20056;-65
2023/10/10 00:50:37;;;;;;;22.33;21.10;;;;;;;;;;4984887;28;20045;-65
2023/10/10 00:53:11;;;;;;;22.23;21.02;;;;;;;;;;4986422;28;20056;-65
2023/10/10 00:55:39;;;;;;;22.65;21.25;;;;;;;;;;4984493;28;20042;-65
2023/10/10 00:58:07;;;;;;;23.17;21.88;;;;;;;;;;5005917;28;20065;-65
2023/10/10 01:00:35;;;;;;;22.52;21.25;;;;;;;;;;4993335;28;20038;-65
2023/10/10 01:03:19;;;;;;;21.98;20.75;;;;;;;;;;5004824;28;20069;-66
2023/10/10 01:05:52;;;;;;;22.02;20.83;;;;;;;;;;5008157;28;20033;-65
2023/10/10 01:08:23;;;;;;;20.92;19.63;;;;;;;;;;5008754;28;20370;-65
2023/10/10 01:10:49;;;;;;;21.17;19.98;;;;;;;;;;5007837;28;20073;-66
2023/10/10 01:13:18;;;;;;;23.75;22.45;;;;;;;;;;5008522;28;20041;-68
2023/10/10 01:15:44;;;;;;;24.70;23.30;;;;;;;;;;5007493;28;20046;-68
2023/10/10 01:18:13;;;;;;;22.35;21.15;;;;;;;;;;4991135;28;20492;-67
2023/10/10 01:20:45;;;;;;;22.40;21.20;;;;;;;;;;5007824;28;20033;-65
2023/10/10 01:23:12;;;;;;;22.50;21.23;;;;;;;;;;5007842;28;20046;-67
2023/10/10 01:28:23;;;;;;;24.13;22.83;;;;;;;;;;4989981;28;20038;-68
2023/10/10 01:33:36;;;;;;;24.65;23.25;;;;;;;;;;5008899;28;20036;-67
2023/10/10 01:36:12;;;;;;;23.33;22.02;;;;;;;;;;5004908;28;20061;-68
2023/10/10 01:38:44;;;;;;;22.48;21.17;;;;;;;;;;5010745;28;20383;-68
2023/10/10 01:41:21;;;;;;;22.85;21.55;;;;;;;;;;4993423;28;20574;-65
2023/10/10 01:43:47;;;;;;;21.65;20.42;;;;;;;;;;5008041;28;20103;-65
2023/10/10 01:46:46;;;;;;;21.20;20.05;;;;;;;;;;4992644;28;20037;-65
2023/10/10 01:49:14;;;;;;;21.20;20.02;;;;;;;;;;4987290;28;20050;-68
2023/10/10 01:51:43;;;;;;;21.67;20.48;;;;;;;;;;5008453;28;20034;-67
2023/10/10 01:54:18;;;;;;;22.55;21.25;;;;;;;;;;5005623;28;20030;-68
2023/10/10 01:56:44;;;;;;;20.98;19.88;;;;;;;;;;5009808;28;20038;-68
2023/10/10 01:59:13;;;;;;;21.85;20.45;;;;;;;;;;5006145;28;20021;-68
2023/10/10 02:01:41;;;;;;;22.88;21.55;;;;;;;;;;5008665;28;20132;-64
2023/10/10 02:04:07;;;;;;;23.08;21.77;;;;;;;;;;4991617;28;20125;-65
2023/10/10 02:06:35;;;;;;;20.08;18.98;;;;;;;;;;5010052;28;20116;-65
2023/10/10 02:09:27;;;;;;;22.17;20.98;;;;;;;;;;5003706;28;20049;-66
2023/10/10 02:11:56;;;;;;;22.70;21.35;;;;;;;;;;5001949;28;20115;-68
2023/10/10 02:14:30;;;;;;;22.25;20.95;;;;;;;;;;5006789;28;20026;-68
2023/10/10 02:16:59;;;;;;;20.73;19.58;;;;;;;;;;4987006;28;20479;-68
2023/10/10 02:19:32;;;;;;;21.15;19.85;;;;;;;;;;5006342;28;20407;-68
2023/10/10 02:22:22;;;;;;;22.42;21.13;;;;;;;;;;5002107;28;20033;-68
2023/10/10 02:25:08;;;;;;;20.88;19.77;;;;;;;;;;5001845;28;20096;-68
2023/10/10 02:27:35;;;;;;;22.25;21.05;;;;;;;;;;5005423;28;20562;-67
2023/10/10 02:30:04;;;;;;;20.20;19.10;;;;;;;;;;5005469;28;20456;-68
2023/10/10 02:32:29;;;;;;;19.75;18.65;;;;;;;;;;5002550;28;20358;-67
2023/10/10 02:35:16;;;;;;;20.98;19.83;;;;;;;;;;5005064;28;20030;-70
2023/10/10 02:37:44;;;;;;;19.77;18.67;;;;;;;;;;5005410;28;20048;-67
2023/10/10 02:40:16;;;;;;;22.40;21.00;;;;;;;;;;5000955;28;20644;-68
2023/10/10 02:43:17;;;;;;;20.77;19.58;;;;;;;;;;4988878;28;20048;-65
2023/10/10 02:45:36;;;;;;;20.23;19.02;;;;;;;;;;5004190;28;20196;-65
2023/10/10 02:48:07;;;;;;;22.00;20.80;;;;;;;;;;5005821;28;20105;-66
2023/10/10 02:50:40;;;;;;;;;;;;;;;;;;5004031;28;20045;-68
2023/10/10 02:53:08;;;;;;;19.75;18.60;;;;;;;;;;5003287;28;20585;-68
2023/10/10 02:55:41;;;;;;;20.67;19.48;;;;;;;;;;5004423;28;20041;-68
2023/10/10 02:58:20;;;;;;;20.90;19.70;;;;;;;;;;5003165;28;20044;-65
2023/10/10 03:00:52;;;;;;;20.88;19.67;;;;;;;;;;5006733;28;20136;-65
2023/10/10 03:03:18;;;;;;;20.90;19.80;;;;;;;;;;5002309;28;20030;-68
2023/10/10 03:05:58;;;;;;;20.85;19.45;;;;;;;;;;5006536;28;20052;-67
2023/10/10 03:11:01;;;;;;;19.50;18.40;;;;;;;;;;5000510;28;20040;-65
2023/10/10 03:13:48;;;;;;;20.88;19.67;;;;;;;;;;5003183;28;20137;-67
2023/10/10 03:21:43;;;;;;;19.90;18.80;;;;;;;;;;5003349;28;20038;-68
2023/10/10 03:24:29;;;;;;;21.27;19.90;;;;;;;;;;5001970;28;20357;-68
2023/10/10 03:27:18;;;;;;;22.27;21.05;;;;;;;;;;5004891;28;20038;-68
2023/10/10 03:29:47;;;;;;;19.88;18.73;;;;;;;;;;4999329;28;20030;-65
2023/10/10 03:32:27;;;;;;;20.20;19.10;;;;;;;;;;5000585;28;20041;-66
2023/10/10 03:34:56;;;;;;;20.73;19.58;;;;;;;;;;4984214;28;20040;-70
2023/10/10 03:39:55;;;;;;;19.45;18.30;;;;;;;;;;5003412;28;20048;-70
2023/10/10 05:24:17;;;;;;;20.88;19.65;;;;;;;;;;5002006;28;20040;-67
2023/10/10 05:26:49;;;;;;;20.10;18.73;;;;;;;;;;5002772;28;20034;-66
2023/10/10 05:29:19;;;;;;;20.42;19.13;;;;;;;;;;4983372;28;20242;-65
2023/10/10 05:31:51;;;;;;;18.30;17.25;;;;;;;;;;5003217;28;20041;-65
2023/10/10 05:34:22;;;;;;;22.30;20.75;;;;;;;;;;4985554;28;20065;-65
2023/10/10 05:36:48;;;;;;;22.33;20.98;;;;;;;;;;5004470;28;20030;-68
2023/10/10 05:39:21;;;;;;;19.60;18.50;;;;;;;;;;5002153;28;20065;-69
2023/10/10 05:41:54;;;;;;;21.33;20.15;;;;;;;;;;5004061;28;20519;-68
2023/10/10 05:44:19;;;;;;;20.52;19.33;;;;;;;;;;4990632;28;20026;-66
2023/10/10 05:46:45;;;;;;;21.85;20.55;;;;;;;;;;4988350;28;20037;-66
2023/10/10 05:49:10;;;;;;;20.02;18.83;;;;;;;;;;5005208;28;20030;-65
2023/10/10 05:51:35;;;;;;;21.70;20.30;;;;;;;;;;5006241;28;20060;-66
2023/10/10 05:54:01;;;;;;;20.70;19.13;;;;;;;;;;5003926;28;20113;-69
2023/10/10 05:56:29;;;;;;;21.95;20.70;;;;;;;;;;5002675;28;20048;-69
2023/10/10 05:58:55;;;;;;;20.77;19.65;;;;;;;;;;5004496;28;20530;-68
2023/10/10 06:01:20;;;;;;;19.55;18.45;;;;;;;;;;4986890;28;20027;-65
2023/10/10 06:03:45;;;;;;;19.27;18.17;;;;;;;;;;4988769;28;20042;-65
2023/10/10 06:06:12;;;;;;;22.15;20.70;;;;;;;;;;5004479;28;20030;-65
2023/10/10 06:08:41;;;;;;;20.63;19.40;;;;;;;;;;5005687;28;20096;-65
2023/10/10 06:11:07;;;;;;;20.40;19.20;;;;;;;;;;5001629;28;20541;-69
2023/10/10 06:13:38;;;;;;;21.60;20.40;;;;;;;;;;5002617;28;20034;-66
2023/10/10 06:16:07;;;;;;;;;;;;;;;;;;5003829;28;20034;-67
2023/10/10 06:18:33;;;;;;;20.10;18.90;;;;;;;;;;5003302;28;19921;-67
2023/10/10 06:21:02;;;;;;;21.77;20.48;;;;;;;;;;5003531;28;20041;-65
2023/10/10 06:23:28;;;;;;;23.98;22.58;;;;;;;;;;5003730;28;20120;-67
2023/10/10 06:25:58;;;;;;;24.60;23.17;;;;;;;;;;5005020;28;20175;-68
2023/10/10 06:28:25;;;;;;;25.23;23.90;;;;;;;;;;5004945;28;20041;-68
2023/10/10 06:30:52;;;;;;;26.33;24.85;;;;;;;;;;4985198;28;20040;-66
2023/10/10 06:33:27;;;;;;;26.52;24.60;;;;;;;;;;4988077;28;20815;-65
2023/10/10 06:35:53;;;;;;;25.83;24.45;;;;;;;;;;5004014;28;20038;-64
2023/10/10 06:38:24;;;;;;;24.58;23.17;;;;;;;;;;4988471;28;20107;-67
2023/10/10 06:40:53;;;;;;;22.02;20.73;;;;;;;;;;5005476;28;20535;-68
2023/10/10 06:43:20;;;;;;;22.55;21.17;;;;;;;;;;5005492;28;20069;-67
2023/10/10 06:45:52;;;;;;;22.15;20.83;;;;;;;;;;4988312;28;20586;-67
2023/10/10 06:48:21;;;;;;;23.25;21.75;;;;;;;;;;5001382;28;20037;-69
2023/10/10 06:50:49;;;;;;;22.60;21.35;;;;;;;;;;5002408;28;20455;-67
2023/10/10 06:53:28;;;;;;;21.52;20.23;;;;;;;;;;5001043;28;20108;-65
2023/10/10 06:55:54;;;;;;;21.52;20.13;;;;;;;;;;4985281;28;20049;-67
2023/10/10 06:58:19;;;;;;;22.58;20.88;;;;;;;;;;5003828;28;20037;-68
2023/10/10 07:00:45;;;;;;;21.80;20.52;;;;;;;;;;5001960;28;20037;-65
2023/10/10 07:03:18;;;;;;;20.02;18.85;;;;;;;;;;5004661;28;20034;-65
2023/10/10 07:05:44;;;;;;;21.20;19.88;;;;;;;;;;5005162;28;20040;-67
2023/10/10 07:08:13;;;;;;;20.08;18.98;;;;;;;;;;5004807;28;20041;-67
2023/10/10 07:10:42;;;;;;;23.08;21.25;;;;;;;;;;5004586;28;20033;-65
2023/10/10 07:13:12;;;;;;;21.60;20.33;;;;;;;;;;4985611;28;20141;-67
2023/10/10 07:15:39;;;;;;;;;;;;;;;;;;5003992;28;20463;-68
2023/10/10 07:18:14;;;;;;;19.95;18.50;;;;;;;;;;5004545;28;20436;-68
2023/10/10 07:24:12;;;;;;;22.63;21.15;;;;;;;;;;4999617;28;20049;-64
2023/10/10 07:26:41;;;;;;;21.33;20.02;;;;;;;;;;4988574;28;20037;-64
2023/10/10 07:32:17;;;;;;;21.83;20.30;;;;;;;;;;4944816;28;20049;-64
2023/10/10 07:34:50;;;;;;;22.17;20.80;;;;;;;;;;4979685;28;20034;-65
2023/10/10 07:37:17;;;;;;;22.45;21.15;;;;;;;;;;5004576;28;20348;-65
2023/10/10 07:42:27;;;;;;;24.33;22.83;;;;;;;;;;5005701;28;20041;-68
2023/10/10 07:45:03;;;;;;;21.70;20.30;;;;;;;;;;5004429;28;20034;-67
2023/10/10 07:47:32;;;;;;;22.30;20.90;;;;;;;;;;5002694;28;20046;-64
2023/10/10 07:50:08;;;;;;;21.15;19.92;;;;;;;;;;5002253;28;20033;-66
2023/10/10 07:52:35;;;;;;;20.23;19.00;;;;;;;;;;5003272;28;20061;-65
2023/10/10 07:55:04;;;;;;;19.60;18.10;;;;;;;;;;5003413;28;20048;-65
2023/10/10 07:57:46;;;;;;;20.45;19.27;;;;;;;;;;5001038;28;20529;-64
2023/10/10 08:00:17;;;;;;;17.77;16.67;;;;;;;;;;5001902;28;20455;-64
2023/10/10 08:02:49;;;;;;;20.88;19.50;;;;;;;;;;5002907;28;20038;-65
2023/10/10 08:05:19;;;;;;;20.85;19.58;;;;;;;;;;5003852;28;20038;-64
2023/10/10 08:07:45;;;;;;;21.40;19.83;;;;;;;;;;4999379;28;20045;-64
2023/10/10 08:10:29;;;;;;;18.42;17.33;;;;;;;;;;5000605;28;20041;-64
2023/10/10 08:12:56;;;;;;;18.73;17.52;;;;;;;;;;5001346;28;20030;-64
2023/10/10 08:15:25;;;;;;;17.77;16.58;;;;;;;;;;5002563;28;20371;-66
2023/10/10 08:17:52;;;;;;;17.33;16.25;;;;;;;;;;5001040;28;20037;-64
2023/10/10 08:20:33;;;;;;;18.02;16.83;;;;;;;;;;5003048;28;20040;-64
2023/10/10 08:23:01;;;;;;;19.55;18.35;;;;;;;;;;4985587;28;20042;-64
2023/10/10 08:25:27;;;;;;;18.83;17.50;;;;;;;;;;4985589;28;20038;-67
2023/10/10 08:27:55;;;;;;;20.77;19.52;;;;;;;;;;5001656;28;20459;-64
2023/10/10 08:30:25;;;;;;;21.90;20.50;;;;;;;;;;4989822;28;20495;-65
2023/10/10 08:32:55;;;;;;;21.42;20.13;;;;;;;;;;5001549;28;20407;-68
2023/10/10 08:35:29;;;;;;;23.40;22.00;;;;;;;;;;5001021;28;20037;-64
2023/10/10 08:37:57;;;;;;;25.80;24.30;;;;;;;;;;5000536;28;20104;-68
2023/10/10 08:40:30;;;;;;;23.00;21.67;;;;;;;;;;5002557;28;20121;-64
2023/10/10 08:42:56;;;;;;;21.45;20.15;;;;;;;;;;5002444;28;20042;-64
2023/10/10 08:45:23;;;;;;;24.48;23.10;;;;;;;;;;5002323;28;20033;-65
2023/10/10 08:47:59;;;;;;;24.63;22.77;;;;;;;;;;4983465;28;20055;-64
2023/10/10 08:50:25;;;;;;;23.92;22.63;;;;;;;;;;4987488;28;20022;-64
2023/10/10 08:52:54;;;;;;;24.13;22.70;;;;;;;;;;4985163;28;20129;-64
2023/10/10 08:55:26;;;;;;;23.75;22.35;;;;;;;;;;4987969;28;20037;-66
2023/10/10 08:57:55;;;;;;;23.23;21.83;;;;;;;;;;5003862;28;20168;-64
2023/10/10 09:00:27;;;;;;;23.52;21.67;;;;;;;;;;4984435;28;20044;-64
2023/10/10 09:02:56;;;;;;;23.35;21.75;;;;;;;;;;5003743;28;20565;-66
2023/10/10 09:05:24;;;;;;;18.35;17.25;;;;;;;;;;4985069;28;20045;-65
2023/10/10 09:07:53;;;;;;;18.02;16.92;;;;;;;;;;4983026;28;20045;-67
2023/10/10 09:10:28;;;;;;;17.50;16.50;;;;;;;;;;4986798;28;20041;-67
2023/10/10 09:12:58;;;;;;;21.63;20.23;;;;;;;;;;5002140;28;20048;-68
2023/10/10 09:15:25;;;;;;;17.70;16.55;;;;;;;;;;5003347;28;20467;-63
2023/10/10 09:17:55;;;;;;;18.63;17.27;;;;;;;;;;5002694;28;20052;-63
2023/10/10 09:20:28;;;;;;;;;;;;;;;;;;5007902;28;20079;-66
2023/10/10 09:22:58;;;;;;;17.65;16.60;;;;;;;;;;5005549;28;20044;-66
2023/10/10 09:25:26;;;;;;;18.43;17.13;;;;;;;;;;5007201;28;20314;-66
2023/10/10 09:28:04;;;;;;;21.65;20.25;;;;;;;;;;5006957;28;20433;-64
2023/10/10 09:30:32;;;;;;;21.38;20.08;;;;;;;;;;5003837;28;20033;-65
2023/10/10 09:35:49;;;;;;;20.35;19.13;;;;;;;;;;5004758;28;20107;-64
2023/10/10 09:38:20;;;;;;;20.92;19.73;;;;;;;;;;5004394;28;20133;-64
2023/10/10 09:40:59;;;;;;;21.13;19.63;;;;;;;;;;5005176;28;20042;-63
2023/10/10 09:43:35;;;;;;;20.67;19.27;;;;;;;;;;5006299;28;20379;-66
2023/10/10 09:46:19;;;;;;;19.55;18.35;;;;;;;;;;5006676;28;20553;-64
2023/10/10 09:49:17;;;;;;;20.98;19.67;;;;;;;;;;5005683;28;20042;-66
2023/10/10 09:54:25;;;;;;;20.33;19.13;;;;;;;;;;5006062;28;20049;-64
2023/10/10 09:56:53;;;;;;;19.65;18.42;;;;;;;;;;5001198;28;20112;-67
2023/10/10 09:59:20;;;;;;;19.85;18.65;;;;;;;;;;4991275;28;20348;-64
2023/10/10 10:01:59;;;;;;;18.50;17.27;;;;;;;;;;5001482;28;20057;-66
2023/10/10 10:04:36;;;;;;;21.83;20.35;;;;;;;;;;5003942;28;20026;-63
2023/10/10 10:07:20;;;;;;;19.30;18.10;;;;;;;;;;4988486;28;20038;-67
2023/10/10 10:10:09;;;;;;;20.38;19.05;;;;;;;;;;5005529;28;20042;-64
2023/10/10 10:13:08;;;;;;;19.50;18.27;;;;;;;;;;5004630;28;20041;-64
2023/10/10 10:15:50;;;;;;;18.17;17.17;;;;;;;;;;5005033;28;20096;-63
2023/10/10 10:18:27;;;;;;;22.17;20.52;;;;;;;;;;4985490;28;20038;-63
2023/10/10 10:21:30;;;;;;;18.88;17.77;;;;;;;;;;5003225;28;20034;-63
2023/10/10 10:24:15;;;;;;;19.67;18.30;;;;;;;;;;4998514;28;20065;-63
2023/10/10 10:26:42;;;;;;;18.60;17.20;;;;;;;;;;5001853;28;20442;-62
2023/10/10 10:29:16;;;;;;;17.92;16.83;;;;;;;;;;5004610;28;20029;-69
2023/10/10 10:31:50;;;;;;;22.15;20.73;;;;;;;;;;5001120;28;20431;-62
2023/10/10 10:34:23;;;;;;;20.58;19.17;;;;;;;;;;5001935;28;20033;-63
2023/10/10 10:37:06;;;;;;;20.27;19.08;;;;;;;;;;4999396;28;20041;-62
2023/10/10 10:39:36;;;;;;;19.13;17.92;;;;;;;;;;4985399;28;20034;-68
2023/10/10 10:42:11;;;;;;;19.55;18.27;;;;;;;;;;5002335;28;20030;-62
2023/10/10 10:47:38;;;;;;;18.58;17.23;;;;;;;;;;5007971;28;20036;-62
2023/10/10 10:50:19;;;;;;;18.88;17.67;;;;;;;;;;5000048;28;20030;-68
2023/10/10 10:52:56;;;;;;;20.02;18.63;;;;;;;;;;5001954;28;20042;-63
2023/10/10 10:55:27;;;;;;;21.23;19.88;;;;;;;;;;4998751;28;20040;-65
2023/10/10 10:58:05;;;;;;;19.38;18.08;;;;;;;;;;5003875;28;20696;-67
2023/10/10 11:01:00;;;;;;;20.85;19.55;;;;;;;;;;5001809;28;20125;-69
2023/10/10 11:03:35;;;;;;;23.42;22.02;;;;;;;;;;5003080;28;20044;-68
2023/10/10 11:06:20;;;;;;;23.42;21.85;;;;;;;;;;5002038;28;20041;-69
2023/10/10 11:14:03;;;;;;;27.65;26.10;;;;;;;;;;4990445;28;20125;-69
2023/10/10 11:16:45;;;;;;;25.48;23.88;;;;;;;;;;5001984;28;20486;-68
2023/10/10 11:21:49;;;;;;;23.67;22.38;;;;;;;;;;4988688;28;20041;-68
2023/10/10 11:24:25;;;;;;;19.40;18.00;;;;;;;;;;4970790;28;20546;-68
2023/10/10 11:29:34;;;;;;;29.05;27.35;;;;;;;;;;5003072;28;20030;-68
2023/10/10 11:32:07;;;;;;;44.35;42.03;;;;;;;;;;5002160;28;20143;-68
2023/10/10 11:34:45;;;;;;;63.70;60.47;;;;;;;;;;5005332;28;20030;-68
2023/10/10 11:37:23;;;;;;;51.13;48.50;;;;;;;;;;4983347;28;20042;-68
2023/10/10 11:39:52;;;;;;;69.80;66.18;;;;;;;;;;5001517;28;20178;-68
2023/10/10 11:42:33;;;;;;;96.25;91.45;;;;;;;;;;5000918;28;20112;-68
2023/10/10 11:45:06;;;;;;;81.45;77.38;;;;;;;;;;5004233;28;20045;-67
2023/10/10 11:47:42;;;;;;;44.88;42.55;;;;;;;;;;5001456;28;20433;-68
2023/10/10 11:50:08;;;;;;;74.55;70.68;;;;;;;;;;5002428;28;20619;-68
2023/10/10 11:52:34;;;;;;;48.45;45.92;;;;;;;;;;5002559;28;20475;-67
2023/10/10 11:55:00;;;;;;;60.13;56.80;;;;;;;;;;5000542;28;20111;-66
2023/10/10 11:57:29;;;;;;;44.60;42.28;;;;;;;;;;5002063;28;20046;-68
2023/10/10 11:59:58;;;;;;;35.30;33.47;;;;;;;;;;4986274;28;20046;-68
2023/10/10 12:02:39;;;;;;;84.90;80.65;;;;;;;;;;5005069;28;20038;-67
2023/10/10 12:05:35;;;;;;;52.58;49.65;;;;;;;;;;4989265;28;20034;-66
2023/10/10 12:07:53;;;;;;;74.95;70.90;;;;;;;;;;5000841;28;20033;-66
2023/10/10 12:10:24;;;;;;;61.45;58.20;;;;;;;;;;4988063;28;20383;-64
2023/10/10 12:12:53;;;;;;;45.55;42.95;;;;;;;;;;5001508;28;20531;-66
2023/10/10 12:15:22;;;;;;;98.17;93.20;;;;;;;;;;4969417;28;20049;-64
2023/10/10 12:17:52;;;;;;;107.05;100.78;;;;;;;;;;5001042;28;20038;-64
2023/10/10 12:20:18;;;;;;;99.15;94.18;;;;;;;;;;4982363;28;20034;-64
2023/10/10 12:22:43;;;;;;;76.22;72.30;;;;;;;;;;5001237;28;20030;-64
2023/10/10 12:25:14;;;;;;;88.30;83.78;;;;;;;;;;4983261;28;20044;-64
2023/10/10 12:27:48;;;;;;;90.60;86.05;;;;;;;;;;4987905;28;20187;-63
2023/10/10 12:30:18;;;;;;;104.88;99.70;;;;;;;;;;5001647;28;20045;-64
2023/10/10 12:32:47;;;;;;;104.68;99.45;;;;;;;;;;5003703;28;20038;-64
2023/10/10 12:35:12;;;;;;;82.65;78.47;;;;;;;;;;5002691;28;20029;-64
2023/10/10 12:37:38;;;;;;;103.97;98.80;;;;;;;;;;5001416;28;20045;-64
2023/10/10 12:40:09;;;;;;;96.68;91.70;;;;;;;;;;5001801;28;20038;-64
2023/10/10 12:42:35;;;;;;;104.57;99.45;;;;;;;;;;5003299;28;20034;-64
2023/10/10 12:45:01;;;;;;;108.03;102.55;;;;;;;;;;5003238;28;20042;-64
2023/10/10 12:47:31;;;;;;;105.82;100.55;;;;;;;;;;5001084;28;20045;-64
2023/10/10 12:50:12;;;;;;;109.72;104.32;;;;;;;;;;5003991;28;20033;-64
2023/10/10 12:52:45;;;;;;;76.43;72.25;;;;;;;;;;5001872;28;20576;-64
2023/10/10 12:55:11;;;;;;;108.30;102.90;;;;;;;;;;4996243;28;20029;-63
2023/10/10 12:57:37;;;;;;;110.82;105.07;;;;;;;;;;5002318;28;20041;-64
2023/10/10 13:02:58;;;;;;;97.60;92.35;;;;;;;;;;4996362;28;20046;-64
2023/10/10 13:05:27;;;;;;;96.97;92.10;;;;;;;;;;5000048;28;20041;-64
2023/10/10 13:07:55;;;;;;;36.80;34.60;;;;;;;;;;5000407;28;20050;-64
2023/10/10 13:10:26;;;;;;;32.30;30.60;;;;;;;;;;4981764;28;20077;-66
2023/10/10 13:12:53;;;;;;;23.33;22.02;;;;;;;;;;5001744;28;20061;-65
2023/10/10 13:15:19;;;;;;;45.60;43.03;;;;;;;;;;4997661;28;20033;-66
2023/10/10 13:18:11;;;;;;;53.97;51.08;;;;;;;;;;4999862;28;20049;-65
2023/10/10 13:20:38;;;;;;;25.48;23.63;;;;;;;;;;4968077;28;20034;-66
2023/10/10 13:23:06;;;;;;;21.08;19.88;;;;;;;;;;4997065;28;20171;-67
2023/10/10 13:25:37;;;;;;;25.20;23.75;;;;;;;;;;4999244;28;20034;-67
2023/10/10 13:28:09;;;;;;;25.05;23.63;;;;;;;;;;4999234;28;20046;-66
2023/10/10 13:30:38;;;;;;;21.52;20.23;;;;;;;;;;5000662;28;20034;-67
2023/10/10 13:33:06;;;;;;;22.48;20.67;;;;;;;;;;5001803;28;20201;-66
2023/10/10 13:35:32;;;;;;;21.20;20.00;;;;;;;;;;4986752;28;20042;-65
2023/10/10 13:37:57;;;;;;;24.92;23.50;;;;;;;;;;5000536;28;20026;-66
2023/10/10 13:40:23;;;;;;;27.45;25.92;;;;;;;;;;5001964;28;20056;-67
2023/10/10 13:42:49;;;;;;;21.58;19.92;;;;;;;;;;5002952;28;20053;-68
2023/10/10 13:45:19;;;;;;;25.83;24.42;;;;;;;;;;4999671;28;20029;-67
2023/10/10 13:47:48;;;;;;;;;;;;;;;;;;5002032;28;20038;-66
2023/10/10 13:50:40;;;;;;;50.95;48.35;;;;;;;;;;5002277;28;19921;-66
2023/10/10 13:53:04;;;;;;;21.92;20.63;;;;;;;;;;5002650;28;20038;-65
2023/10/10 13:55:38;;;;;;;22.38;21.08;;;;;;;;;;4999765;28;20058;-66
2023/10/10 13:58:07;;;;;;;23.60;22.25;;;;;;;;;;5003066;28;20091;-65
2023/10/10 14:00:45;;;;;;;21.02;19.55;;;;;;;;;;5001265;28;20029;-65
2023/10/10 14:03:14;;;;;;;22.40;21.10;;;;;;;;;;4984652;28;20061;-66
2023/10/10 14:05:41;;;;;;;37.70;35.75;;;;;;;;;;5003541;28;20048;-66
2023/10/10 14:08:08;;;;;;;38.63;36.58;;;;;;;;;;5004511;28;20029;-66
2023/10/10 14:10:38;;;;;;;40.22;38.15;;;;;;;;;;5004051;28;20045;-66
2023/10/10 14:13:18;;;;;;;49.55;46.90;;;;;;;;;;5003649;28;20044;-67
2023/10/10 14:15:54;;;;;;;45.38;42.65;;;;;;;;;;5005017;28;20104;-65
2023/10/10 14:18:28;;;;;;;38.38;36.35;;;;;;;;;;5003783;28;20034;-66
2023/10/10 14:20:54;;;;;;;29.38;27.83;;;;;;;;;;5002526;28;20057;-67
2023/10/10 14:23:22;;;;;;;36.30;34.40;;;;;;;;;;5004037;28;20132;-67
2023/10/10 14:25:49;;;;;;;38.67;36.67;;;;;;;;;;5006099;28;20395;-66
2023/10/10 14:28:18;;;;;;;29.52;27.83;;;;;;;;;;5005028;28;20037;-66
2023/10/10 14:30:50;;;;;;;39.78;37.67;;;;;;;;;;5002330;28;20156;-65
2023/10/10 14:33:22;;;;;;;39.38;37.38;;;;;;;;;;4989778;28;20040;-66
2023/10/10 14:35:47;;;;;;;33.58;31.77;;;;;;;;;;5001454;28;20045;-66
2023/10/10 14:38:16;;;;;;;51.20;48.60;;;;;;;;;;5005730;28;20030;-66
2023/10/10 14:40:45;;;;;;;47.58;44.97;;;;;;;;;;5004896;28;20030;-66
2023/10/10 14:43:11;;;;;;;38.80;36.80;;;;;;;;;;5002736;28;20042;-66
2023/10/10 14:45:42;;;;;;;20.85;19.65;;;;;;;;;;5004307;28;20057;-66
2023/10/10 14:48:14;;;;;;;51.05;48.45;;;;;;;;;;5002957;28;20057;-64
2023/10/10 14:50:40;;;;;;;43.05;40.85;;;;;;;;;;4992165;28;20410;-64
2023/10/10 14:53:08;;;;;;;35.58;33.65;;;;;;;;;;5004786;28;20245;-64
2023/10/10 14:55:45;;;;;;;43.28;40.92;;;;;;;;;;5007561;28;20407;-66
2023/10/10 14:58:12;;;;;;;29.65;28.05;;;;;;;;;;4984362;28;20128;-63
2023/10/10 15:00:40;;;;;;;31.83;30.05;;;;;;;;;;5003656;28;20363;-64
2023/10/10 15:03:12;;;;;;;35.97;34.08;;;;;;;;;;4998185;28;20042;-64
2023/10/10 15:06:06;;;;;;;27.85;26.17;;;;;;;;;;5001376;28;20444;-64
2023/10/10 15:08:31;;;;;;;37.08;34.97;;;;;;;;;;4998856;28;20180;-64
2023/10/10 15:11:34;;;;;;;22.85;21.55;;;;;;;;;;5011537;28;20045;-67
2023/10/10 15:14:06;;;;;;;50.90;48.30;;;;;;;;;;5013585;28;20482;-67
2023/10/10 15:16:35;;;;;;;34.00;32.20;;;;;;;;;;5014105;28;20030;-65
2023/10/10 15:19:02;;;;;;;24.67;23.17;;;;;;;;;;5004844;28;20034;-65
2023/10/10 15:21:32;;;;;;;24.33;23.02;;;;;;;;;;5015683;28;20038;-65
2023/10/10 15:24:08;;;;;;;21.75;20.45;;;;;;;;;;5008149;28;20571;-67
2023/10/10 15:26:34;;;;;;;39.05;36.88;;;;;;;;;;5000262;28;20065;-68
2023/10/10 15:29:00;;;;;;;20.73;19.60;;;;;;;;;;5005198;28;20080;-68
2023/10/10 15:31:27;;;;;;;21.00;19.80;;;;;;;;;;5004346;28;20743;-67
2023/10/10 15:33:53;;;;;;;32.40;30.33;;;;;;;;;;4989791;28;20124;-65
2023/10/10 15:36:19;;;;;;;39.53;37.40;;;;;;;;;;5002509;28;20172;-68
2023/10/10 15:38:45;;;;;;;53.30;50.60;;;;;;;;;;5004886;28;20042;-66
2023/10/10 15:41:17;;;;;;;42.33;40.13;;;;;;;;;;5008392;28;20091;-65
2023/10/10 15:43:49;;;;;;;41.30;38.90;;;;;;;;;;5011110;28;20059;-68
2023/10/10 15:46:16;;;;;;;75.32;71.40;;;;;;;;;;5008473;28;20044;-67
2023/10/10 15:48:48;;;;;;;72.10;68.30;;;;;;;;;;5011014;28;20033;-66
2023/10/10 15:51:16;;;;;;;87.88;83.53;;;;;;;;;;5012024;28;20462;-66
2023/10/10 15:53:45;;;;;;;71.60;68.00;;;;;;;;;;5015248;28;20036;-66
2023/10/10 15:56:15;;;;;;;81.38;77.30;;;;;;;;;;5008555;28;20038;-64
2023/10/10 15:58:49;;;;;;;102.03;96.90;;;;;;;;;;5012135;28;20407;-66
2023/10/10 16:01:28;;;;;;;82.00;77.80;;;;;;;;;;4993934;28;20049;-66
2023/10/10 16:04:12;;;;;;;100.22;95.25;;;;;;;;;;5014486;28;20092;-64
2023/10/10 16:06:40;;;;;;;94.20;89.53;;;;;;;;;;4997602;28;20034;-66
2023/10/10 16:09:10;;;;;;;100.20;95.15;;;;;;;;;;5012046;28;20060;-66
2023/10/10 16:11:36;;;;;;;91.80;87.25;;;;;;;;;;5003362;28;20081;-66
2023/10/10 16:14:12;;;;;;;92.50;87.95;;;;;;;;;;5008821;28;20042;-69
2023/10/10 16:16:43;;;;;;;91.28;86.78;;;;;;;;;;4996942;28;20037;-63
2023/10/10 16:19:24;;;;;;;87.57;83.07;;;;;;;;;;5012270;28;20030;-69
2023/10/10 16:21:52;;;;;;;88.83;84.33;;;;;;;;;;5004017;28;20037;-68
2023/10/10 16:24:18;;;;;;;82.68;78.45;;;;;;;;;;5002816;28;20026;-67
2023/10/10 16:26:45;;;;;;;80.95;76.93;;;;;;;;;;5001004;28;20034;-66
2023/10/10 16:29:11;;;;;;;75.32;71.55;;;;;;;;;;5000427;28;20624;-66
2023/10/10 16:31:37;;;;;;;58.45;55.40;;;;;;;;;;5001143;28;20053;-67
2023/10/10 16:34:04;;;;;;;53.15;50.28;;;;;;;;;;5003302;28;20036;-67
2023/10/10 16:36:30;;;;;;;41.85;39.63;;;;;;;;;;5002950;28;20034;-67
2023/10/10 16:38:56;;;;;;;32.75;30.75;;;;;;;;;;4999824;28;20026;-64
2023/10/10 16:41:25;;;;;;;26.75;25.25;;;;;;;;;;5004362;28;20516;-66
2023/10/10 16:43:51;;;;;;;23.15;21.85;;;;;;;;;;4987772;28;20442;-67
2023/10/10 16:46:17;;;;;;;24.90;23.40;;;;;;;;;;5000461;28;20045;-68
2023/10/10 16:48:46;;;;;;;21.77;20.58;;;;;;;;;;5001165;28;20033;-67
2023/10/10 16:51:14;;;;;;;21.98;20.67;;;;;;;;;;5000204;28;20383;-67
2023/10/10 16:53:40;;;;;;;20.15;18.95;;;;;;;;;;5000896;28;20037;-66
2023/10/10 16:56:07;;;;;;;21.20;19.75;;;;;;;;;;4999851;28;20038;-67
2023/10/10 16:58:34;;;;;;;20.67;19.48;;;;;;;;;;5001433;28;20041;-67
2023/10/10 17:01:01;;;;;;;21.48;20.17;;;;;;;;;;5000860;28;20474;-67
2023/10/10 17:03:26;;;;;;;23.88;22.48;;;;;;;;;;4999923;28;20456;-67
2023/10/10 17:05:52;;;;;;;23.50;22.15;;;;;;;;;;4999231;28;20052;-66
2023/10/10 17:08:18;;;;;;;19.40;18.30;;;;;;;;;;5001863;28;20045;-68
2023/10/10 17:10:45;;;;;;;19.98;18.88;;;;;;;;;;4998819;28;20096;-67